createdAt,value
2018-04-19T00:01:13.309Z,91.30
2018-04-19T00:03:39.718Z,91.40
2018-04-19T00:06:06.209Z,93.30
2018-04-19T00:08:33.357Z,92.60
2018-04-19T00:10:59.789Z,92.60
2018-04-19T00:13:26.199Z,92.50
2018-04-19T00:15:52.627Z,92.40
2018-04-19T00:18:19.078Z,92.40
2018-04-19T00:20:45.592Z,92.40
2018-04-19T00:23:11.988Z,92.30
2018-04-19T00:25:38.402Z,92.40
2018-04-19T00:28:04.871Z,92.40
2018-04-19T00:30:31.333Z,92.40
2018-04-19T00:32:57.843Z,92.50
2018-04-19T00:35:24.242Z,92.50
2018-04-19T00:37:50.654Z,92.50
2018-04-19T00:40:17.802Z,92.60
2018-04-19T00:42:44.964Z,92.60
2018-04-19T00:45:11.408Z,92.60
2018-04-19T00:47:37.909Z,92.70
2018-04-19T00:50:05.052Z,92.80
2018-04-19T00:52:44.628Z,93.00
2018-04-19T00:55:12.452Z,92.90
2018-04-19T00:57:38.974Z,92.90
2018-04-19T01:00:06.125Z,93.00
2018-04-19T01:02:33.287Z,93.40
2018-04-19T01:04:59.700Z,93.10
2018-04-19T01:07:26.103Z,93.10
2018-04-19T01:09:52.553Z,93.10
2018-04-19T01:12:18.952Z,93.10
2018-04-19T01:14:45.353Z,93.10
2018-04-19T01:17:12.819Z,93.20
2018-04-19T01:19:39.276Z,93.30
2018-04-19T01:22:05.704Z,93.40
2018-04-19T01:24:32.113Z,93.40
2018-04-19T01:26:58.525Z,93.50
2018-04-19T01:29:24.971Z,93.60
2018-04-19T01:31:51.435Z,93.60
2018-04-19T01:34:17.854Z,93.60
2018-04-19T01:36:45.051Z,93.70
2018-04-19T01:39:11.481Z,93.60
2018-04-19T01:41:38.643Z,93.70
2018-04-19T01:44:05.060Z,93.60
2018-04-19T01:46:31.575Z,94.00
2018-04-19T01:48:58.116Z,95.20
2018-04-19T01:51:25.305Z,94.50
2018-04-19T01:53:52.465Z,94.40
2018-04-19T01:56:19.616Z,94.30
2018-04-19T01:58:46.046Z,94.30
2018-04-19T02:01:12.565Z,94.30
2018-04-19T02:03:38.993Z,94.30
2018-04-19T02:06:05.411Z,94.30
2018-04-19T02:08:31.855Z,94.20
2018-04-19T02:10:58.295Z,94.20
2018-04-19T02:13:24.739Z,94.30
2018-04-19T02:15:51.885Z,95.90
2018-04-19T02:18:18.371Z,95.90
2018-04-19T02:20:44.803Z,95.60
2018-04-19T02:23:11.261Z,95.30
2018-04-19T02:25:38.556Z,96.20
2018-04-19T02:28:05.786Z,95.90
2018-04-19T02:30:32.197Z,95.90
2018-04-19T02:32:59.497Z,95.70
2018-04-19T02:35:25.934Z,95.60
2018-04-19T02:37:52.336Z,95.50
2018-04-19T02:40:18.829Z,95.40
2018-04-19T02:42:45.412Z,95.30
2018-04-19T02:45:12.563Z,95.20
2018-04-19T02:47:39.709Z,95.30
2018-04-19T02:50:06.124Z,95.20
2018-04-19T02:52:32.532Z,95.20
2018-04-19T02:54:59.820Z,95.30
2018-04-19T02:57:26.238Z,95.30
2018-04-19T02:59:52.694Z,95.30
2018-04-19T03:02:19.132Z,95.30
2018-04-19T03:04:45.643Z,95.20
2018-04-19T03:07:12.690Z,95.20
2018-04-19T03:09:39.100Z,95.20
2018-04-19T03:12:05.625Z,95.20
2018-04-19T03:14:32.808Z,95.20
2018-04-19T03:16:59.234Z,95.20
2018-04-19T03:19:25.668Z,96.60
2018-04-19T03:21:52.082Z,96.30
2018-04-19T03:24:18.511Z,97.10
2018-04-19T03:26:45.698Z,96.40
2018-04-19T03:29:12.608Z,96.40
2018-04-19T03:31:39.060Z,96.20
2018-04-19T03:34:05.573Z,96.10
2018-04-19T03:36:31.976Z,95.90
2018-04-19T03:38:58.392Z,95.80
2018-04-19T03:41:24.938Z,95.70
2018-04-19T03:43:52.099Z,95.60
2018-04-19T03:46:19.267Z,95.60
2018-04-19T03:48:46.415Z,95.50
2018-04-19T03:51:12.911Z,95.50
2018-04-19T03:53:40.087Z,95.50
2018-04-19T03:56:06.505Z,95.50
2018-04-19T03:58:33.413Z,95.40
2018-04-19T04:00:59.968Z,95.40
2018-04-19T04:03:26.404Z,95.40
2018-04-19T04:05:53.593Z,95.50
2018-04-19T04:08:20.024Z,95.40
2018-04-19T04:10:46.521Z,95.50
2018-04-19T04:13:12.980Z,95.70
2018-04-19T04:15:39.522Z,95.50
2018-04-19T04:18:18.141Z,95.50
2018-04-19T04:20:58.233Z,95.60
2018-04-19T04:23:39.799Z,95.50
2018-04-19T04:26:06.950Z,95.50
2018-04-19T04:28:33.367Z,95.50
2018-04-19T04:30:59.782Z,95.60
2018-04-19T04:33:26.232Z,95.60
2018-04-19T04:35:53.422Z,95.60
2018-04-19T04:38:19.812Z,95.50
2018-04-19T04:40:46.214Z,95.60
2018-04-19T04:43:12.666Z,95.60
2018-04-19T04:45:39.819Z,95.50
2018-04-19T04:48:06.866Z,95.50
2018-04-19T04:50:33.327Z,95.50
2018-04-19T04:52:59.771Z,95.50
2018-04-19T04:55:26.213Z,95.50
2018-04-19T04:57:52.657Z,95.90
2018-04-19T05:00:19.195Z,95.50
2018-04-19T05:02:45.759Z,95.50
2018-04-19T05:05:12.221Z,95.50
2018-04-19T05:07:38.684Z,95.40
2018-04-19T05:10:05.146Z,95.30
2018-04-19T05:12:31.601Z,95.60
2018-04-19T05:14:58.030Z,97.30
2018-04-19T05:17:24.456Z,97.50
2018-04-19T05:19:50.904Z,97.20
2018-04-19T05:22:17.369Z,96.30
2018-04-19T05:24:43.812Z,90.20
2018-04-19T05:27:10.230Z,79.90
2018-04-19T05:29:36.650Z,70.30
2018-04-19T05:32:03.848Z,56.40
2018-04-19T05:34:30.367Z,56.30
2018-04-19T05:36:57.388Z,52.30
2018-04-19T05:39:23.850Z,49.10
2018-04-19T05:41:50.223Z,46.50
2018-04-19T05:44:16.680Z,44.00
2018-04-19T05:46:43.106Z,42.40
2018-04-19T05:49:09.552Z,40.80
2018-04-19T05:51:36.731Z,38.80
2018-04-19T05:54:03.199Z,38.70
2018-04-19T05:56:29.646Z,37.10
2018-04-19T05:58:56.141Z,35.20
2018-04-19T06:01:22.649Z,34.10
2018-04-19T06:03:49.844Z,32.20
2018-04-19T06:06:16.316Z,32.20
2018-04-19T06:08:42.856Z,31.20
2018-04-19T06:11:09.286Z,30.80
2018-04-19T06:13:36.470Z,29.90
2018-04-19T06:16:02.921Z,29.90
2018-04-19T06:18:30.108Z,29.10
2018-04-19T06:20:56.520Z,29.00
2018-04-19T06:23:23.721Z,28.00
2018-04-19T06:25:50.995Z,29.20
2018-04-19T06:28:18.339Z,29.90
2018-04-19T06:30:44.761Z,29.90
2018-04-19T06:33:11.203Z,30.60
2018-04-19T06:35:37.679Z,30.50
2018-04-19T06:38:04.198Z,30.10
2018-04-19T06:40:31.347Z,29.70
2018-04-19T06:42:58.509Z,26.30
2018-04-19T06:45:24.966Z,26.20
2018-04-19T06:47:52.149Z,27.70
2018-04-19T06:50:18.542Z,27.20
2018-04-19T06:52:44.971Z,27.30
2018-04-19T06:55:12.147Z,23.80
2018-04-19T06:57:39.310Z,25.00
2018-04-19T07:00:05.848Z,24.90
2018-04-19T07:02:32.260Z,23.60
2018-04-19T07:04:58.695Z,23.20
2018-04-19T07:07:25.884Z,24.60
2018-04-19T07:09:52.902Z,24.60
2018-04-19T07:12:20.370Z,22.70
2018-04-19T07:14:46.821Z,22.00
2018-04-19T07:17:13.284Z,22.30
2018-04-19T07:19:39.784Z,22.20
2018-04-19T07:22:06.950Z,22.10
2018-04-19T07:24:34.169Z,22.00
2018-04-19T07:27:00.591Z,21.90
2018-04-19T07:29:27.685Z,21.80
2018-04-19T07:31:54.222Z,22.40
2018-04-19T07:34:20.713Z,22.90
2018-04-19T07:36:47.227Z,22.60
2018-04-19T07:39:14.502Z,22.80
2018-04-19T07:41:41.776Z,21.80
2018-04-19T07:44:08.234Z,21.80
2018-04-19T07:46:35.608Z,21.00
2018-04-19T07:49:02.799Z,21.00
2018-04-19T07:51:29.203Z,21.00
2018-04-19T07:53:56.387Z,20.90
2018-04-19T07:56:22.809Z,20.80
2018-04-19T07:58:49.223Z,21.10
2018-04-19T08:01:15.628Z,20.50
2018-04-19T08:03:42.100Z,20.80
2018-04-19T08:06:08.508Z,20.70
2018-04-19T08:08:34.996Z,20.80
2018-04-19T08:11:01.434Z,21.10
2018-04-19T08:13:27.840Z,21.00
2018-04-19T08:15:54.991Z,20.90
2018-04-19T08:18:21.440Z,20.50
2018-04-19T08:20:47.905Z,20.40
2018-04-19T08:23:14.321Z,20.60
2018-04-19T08:25:40.760Z,20.80
2018-04-19T08:28:07.274Z,21.20
2018-04-19T08:30:33.706Z,21.90
2018-04-19T08:33:00.139Z,22.20
2018-04-19T08:35:26.618Z,22.30
2018-04-19T08:37:53.029Z,22.80
2018-04-19T08:40:19.476Z,23.20
2018-04-19T08:42:46.665Z,25.30
2018-04-19T08:45:13.108Z,25.30
2018-04-19T08:47:40.268Z,28.20
2018-04-19T08:50:06.720Z,28.10
2018-04-19T08:52:33.158Z,29.10
2018-04-19T08:54:59.660Z,30.30
2018-04-19T08:57:27.385Z,32.10
2018-04-19T08:59:54.001Z,32.00
2018-04-19T09:02:21.171Z,32.70
2018-04-19T09:04:47.594Z,32.70
2018-04-19T09:07:14.035Z,33.50
2018-04-19T09:09:40.457Z,34.40
2018-04-19T09:12:06.855Z,37.90
2018-04-19T09:14:33.353Z,38.60
2018-04-19T09:17:00.528Z,39.10
2018-04-19T09:19:27.224Z,39.10
2018-04-19T09:21:53.629Z,40.00
2018-04-19T09:24:20.794Z,39.00
2018-04-19T09:26:48.255Z,38.90
2018-04-19T09:29:14.627Z,38.30
2018-04-19T09:31:41.018Z,39.30
2018-04-19T09:34:07.482Z,39.30
2018-04-19T09:36:33.916Z,40.20
2018-04-19T09:39:00.473Z,39.40
2018-04-19T09:41:27.651Z,38.70
2018-04-19T09:43:54.066Z,38.70
2018-04-19T09:46:20.556Z,38.70
2018-04-19T09:48:47.730Z,39.00
2018-04-19T09:51:15.106Z,38.30
2018-04-19T09:53:42.291Z,38.90
2018-04-19T09:56:08.947Z,38.80
2018-04-19T09:58:35.412Z,38.20
2018-04-19T10:01:07.873Z,38.30
2018-04-19T10:03:40.437Z,37.50
2018-04-19T10:06:07.827Z,37.00
2018-04-19T10:08:34.314Z,36.80
2018-04-19T10:11:00.728Z,37.10
2018-04-19T10:13:27.222Z,37.30
2018-04-19T10:15:54.509Z,36.10
2018-04-19T10:18:20.954Z,36.10
2018-04-19T10:20:47.419Z,36.40
2018-04-19T10:23:13.827Z,37.10
2018-04-19T10:25:40.771Z,37.70
2018-04-19T10:28:07.220Z,36.20
2018-04-19T10:30:33.673Z,36.00
2018-04-19T10:33:00.733Z,36.00
2018-04-19T10:35:27.156Z,37.20
2018-04-19T10:37:54.353Z,37.10
2018-04-19T10:40:20.903Z,37.00
2018-04-19T10:42:48.094Z,37.70
2018-04-19T10:45:14.498Z,37.70
2018-04-19T10:47:40.913Z,37.20
2018-04-19T10:50:07.328Z,37.20
2018-04-19T10:52:34.482Z,36.80
2018-04-19T10:55:00.971Z,36.70
2018-04-19T10:57:27.375Z,36.30
2018-04-19T10:59:53.834Z,37.70
2018-04-19T11:02:20.337Z,38.50
2018-04-19T11:04:47.496Z,39.10
2018-04-19T11:07:14.631Z,38.80
2018-04-19T11:09:41.117Z,38.70
2018-04-19T11:12:07.522Z,38.50
2018-04-19T11:14:34.466Z,40.10
2018-04-19T11:17:01.017Z,39.00
2018-04-19T11:19:28.186Z,38.60
2018-04-19T11:21:55.340Z,38.90
2018-04-19T11:24:21.920Z,38.90
2018-04-19T11:26:48.376Z,40.50
2018-04-19T11:29:15.627Z,39.00
2018-04-19T11:31:42.051Z,39.00
2018-04-19T11:34:08.535Z,39.90
2018-04-19T11:36:35.046Z,39.70
2018-04-19T11:39:01.519Z,39.10
2018-04-19T11:41:28.035Z,38.80
2018-04-19T11:43:55.184Z,38.50
2018-04-19T11:46:22.362Z,38.20
2018-04-19T11:48:49.645Z,38.20
2018-04-19T11:51:16.904Z,38.90
2018-04-19T11:53:43.382Z,38.80
2018-04-19T11:56:10.536Z,37.90
2018-04-19T11:58:36.965Z,37.90
2018-04-19T12:01:03.409Z,37.40
2018-04-19T12:03:29.866Z,37.00
2018-04-19T12:05:56.305Z,36.30
2018-04-19T12:08:22.766Z,36.70
2018-04-19T12:10:49.202Z,36.20
2018-04-19T12:13:15.648Z,35.60
2018-04-19T12:15:42.925Z,35.30
2018-04-19T12:18:09.484Z,35.30
2018-04-19T12:20:36.777Z,36.20
2018-04-19T12:23:03.293Z,36.20
2018-04-19T12:25:29.709Z,35.80
2018-04-19T12:27:56.227Z,35.20
2018-04-19T12:30:23.404Z,36.00
2018-04-19T12:32:49.879Z,36.00
2018-04-19T12:35:16.428Z,35.00
2018-04-19T12:37:42.921Z,34.80
2018-04-19T12:40:09.415Z,34.70
2018-04-19T12:42:36.629Z,34.20
2018-04-19T12:45:03.264Z,34.20
2018-04-19T12:47:29.822Z,34.60
2018-04-19T12:49:56.381Z,34.60
2018-04-19T12:52:22.944Z,35.60
2018-04-19T12:54:49.380Z,34.70
2018-04-19T12:57:16.668Z,36.80
2018-04-19T12:59:43.088Z,36.80
2018-04-19T13:02:10.259Z,37.60
2018-04-19T13:04:36.684Z,37.00
2018-04-19T13:07:03.209Z,37.70
2018-04-19T13:09:30.381Z,39.40
2018-04-19T13:11:57.655Z,38.80
2018-04-19T13:14:24.860Z,37.90
2018-04-19T13:16:52.106Z,38.40
2018-04-19T13:19:18.774Z,38.40
2018-04-19T13:21:45.323Z,38.30
2018-04-19T13:24:12.545Z,40.30
2018-04-19T13:26:39.033Z,40.30
2018-04-19T13:29:06.891Z,39.60
2018-04-19T13:31:33.322Z,39.60
2018-04-19T13:34:00.569Z,40.30
2018-04-19T13:36:29.282Z,40.00
2018-04-19T13:38:55.768Z,40.00
2018-04-19T13:41:24.167Z,37.80
2018-04-19T13:43:50.688Z,38.80
2018-04-19T13:46:17.164Z,39.60
2018-04-19T13:48:43.582Z,38.40
2018-04-19T13:51:10.162Z,39.10
2018-04-19T13:53:37.131Z,39.80
2018-04-19T13:56:03.688Z,39.80
2018-04-19T13:58:30.854Z,40.00
2018-04-19T14:00:58.049Z,40.90
2018-04-19T14:03:24.590Z,40.90
2018-04-19T14:05:51.896Z,40.40
2018-04-19T14:08:18.304Z,40.30
2018-04-19T14:10:44.758Z,40.30
2018-04-19T14:13:11.235Z,40.50
2018-04-19T14:15:38.439Z,41.20
2018-04-19T14:18:04.869Z,41.10
2018-04-19T14:20:32.049Z,41.20
2018-04-19T14:22:58.475Z,41.20
2018-04-19T14:25:25.631Z,41.30
2018-04-19T14:27:52.833Z,40.50
2018-04-19T14:30:20.053Z,40.70
2018-04-19T14:32:46.584Z,40.60
2018-04-19T14:35:13.105Z,41.70
2018-04-19T14:37:39.543Z,41.00
2018-04-19T14:40:05.972Z,41.30
2018-04-19T14:42:33.022Z,41.70
2018-04-19T14:44:59.498Z,41.90
2018-04-19T14:47:25.948Z,41.20
2018-04-19T14:49:52.420Z,41.10
2018-04-19T14:52:18.864Z,41.50
2018-04-19T14:54:45.311Z,41.10
2018-04-19T14:57:11.844Z,40.80
2018-04-19T14:59:39.061Z,40.70
2018-04-19T15:02:05.576Z,40.60
2018-04-19T15:04:32.756Z,40.90
2018-04-19T15:06:59.230Z,40.90
2018-04-19T15:09:25.940Z,41.80
2018-04-19T15:11:52.431Z,41.90
2018-04-19T15:14:18.981Z,42.10
2018-04-19T15:16:46.368Z,41.80
2018-04-19T15:19:12.805Z,41.80
2018-04-19T15:21:39.949Z,43.10
2018-04-19T15:24:06.379Z,43.00
2018-04-19T15:26:32.809Z,43.10
2018-04-19T15:28:59.352Z,42.40
2018-04-19T15:31:26.558Z,43.90
2018-04-19T15:33:53.022Z,43.90
2018-04-19T15:36:19.606Z,43.10
2018-04-19T15:38:46.103Z,42.90
2018-04-19T15:41:12.671Z,43.20
2018-04-19T15:43:39.218Z,43.90
2018-04-19T15:46:06.440Z,44.70
2018-04-19T15:48:32.855Z,44.60
2018-04-19T15:50:59.269Z,45.00
2018-04-19T15:53:26.474Z,45.30
2018-04-19T15:55:53.749Z,46.40
2018-04-19T15:58:21.609Z,44.90
2018-04-19T16:00:48.270Z,44.80
2018-04-19T16:03:14.957Z,42.80
2018-04-19T16:05:42.233Z,42.10
2018-04-19T16:08:09.507Z,42.30
2018-04-19T16:10:36.889Z,41.90
2018-04-19T16:13:03.293Z,41.90
2018-04-19T16:15:29.778Z,40.00
2018-04-19T16:17:56.193Z,41.20
2018-04-19T16:20:22.709Z,42.10
2018-04-19T16:22:49.870Z,40.50
2018-04-19T16:25:17.043Z,40.50
2018-04-19T16:27:44.210Z,40.60
2018-04-19T16:30:11.408Z,40.20
2018-04-19T16:32:37.853Z,40.20
2018-04-19T16:35:04.421Z,41.10
2018-04-19T16:37:30.870Z,41.80
2018-04-19T16:39:57.332Z,41.70
2018-04-19T16:42:24.293Z,42.70
2018-04-19T16:44:50.767Z,42.80
2018-04-19T16:47:17.365Z,42.60
2018-04-19T16:49:43.760Z,41.40
2018-04-19T16:52:10.897Z,42.00
2018-04-19T16:54:37.309Z,42.00
2018-04-19T16:57:03.845Z,41.80
2018-04-19T16:59:31.121Z,43.00
2018-04-19T17:01:57.623Z,42.90
2018-04-19T17:04:24.137Z,43.20
2018-04-19T17:06:50.606Z,43.90
2018-04-19T17:09:17.662Z,43.50
2018-04-19T17:11:44.934Z,44.20
2018-04-19T17:14:12.143Z,43.70
2018-04-19T17:16:40.362Z,43.70
2018-04-19T17:19:06.782Z,44.20
2018-04-19T17:21:33.318Z,44.80
2018-04-19T17:23:59.811Z,45.00
2018-04-19T17:26:26.334Z,45.40
2018-04-19T17:28:53.710Z,45.90
2018-04-19T17:31:20.984Z,45.90
2018-04-19T17:33:48.167Z,45.60
2018-04-19T17:36:14.667Z,45.60
2018-04-19T17:38:41.153Z,45.70
2018-04-19T17:41:07.580Z,46.00
2018-04-19T17:43:34.155Z,46.00
2018-04-19T17:46:01.462Z,51.40
2018-04-19T17:48:28.598Z,52.60
2018-04-19T17:50:55.058Z,52.60
2018-04-19T17:53:23.081Z,54.30
2018-04-19T17:55:50.353Z,55.00
2018-04-19T17:58:17.629Z,55.70
2018-04-19T18:00:44.890Z,55.80
2018-04-19T18:03:12.093Z,56.50
2018-04-19T18:05:38.632Z,56.50
2018-04-19T18:08:05.774Z,57.20
2018-04-19T18:10:32.365Z,57.20
2018-04-19T18:12:58.885Z,56.70
2018-04-19T18:15:25.961Z,56.60
2018-04-19T18:17:52.446Z,56.60
2018-04-19T18:20:19.696Z,56.60
2018-04-19T18:22:46.150Z,56.60
2018-04-19T18:25:13.320Z,56.80
2018-04-19T18:27:39.792Z,56.90
2018-04-19T18:30:08.733Z,57.10
2018-04-19T18:32:35.276Z,57.00
2018-04-19T18:35:01.817Z,57.30
2018-04-19T18:37:29.027Z,57.70
2018-04-19T18:39:55.487Z,57.50
2018-04-19T18:42:22.045Z,57.70
2018-04-19T18:44:49.246Z,58.10
2018-04-19T18:47:16.166Z,58.10
2018-04-19T18:49:43.118Z,58.40
2018-04-19T18:52:10.329Z,58.80
2018-04-19T18:54:36.831Z,58.70
2018-04-19T18:57:04.161Z,59.30
2018-04-19T18:59:31.821Z,59.20
2018-04-19T19:01:59.814Z,59.40
2018-04-19T19:04:26.502Z,59.50
2018-04-19T19:06:53.952Z,59.80
2018-04-19T19:09:21.329Z,59.90
2018-04-19T19:11:49.627Z,59.90
2018-04-19T19:14:16.593Z,60.00
2018-04-19T19:16:43.378Z,60.10
2018-04-19T19:19:22.711Z,60.40
2018-04-19T19:21:49.874Z,60.70
2018-04-19T19:24:17.919Z,60.90
2018-04-19T19:26:44.350Z,61.20
2018-04-19T19:29:10.794Z,61.20
2018-04-19T19:31:38.386Z,61.60
2018-04-19T19:34:04.822Z,61.80
2018-04-19T19:36:34.321Z,62.00
2018-04-19T19:39:02.469Z,62.50
2018-04-19T19:41:30.117Z,62.40
2018-04-19T19:43:56.722Z,62.60
2018-04-19T19:46:23.236Z,62.90
2018-04-19T19:48:50.080Z,63.50
2018-04-19T19:51:18.393Z,64.00
2018-04-19T19:53:45.671Z,64.40
2018-04-19T19:56:12.224Z,64.30
2018-04-19T19:58:38.679Z,64.80
2018-04-19T20:01:05.141Z,65.20
2018-04-19T20:03:31.614Z,65.70
2018-04-19T20:05:58.068Z,66.20
2018-04-19T20:08:24.582Z,66.80
2018-04-19T20:10:51.581Z,67.20
2018-04-19T20:13:18.009Z,67.50
2018-04-19T20:15:44.462Z,68.30
2018-04-19T20:18:10.934Z,68.70
2018-04-19T20:20:38.150Z,69.90
2018-04-19T20:23:04.680Z,69.70
2018-04-19T20:25:31.139Z,70.30
2018-04-19T20:27:57.572Z,70.90
2018-04-19T20:30:24.763Z,71.90
2018-04-19T20:32:51.198Z,71.70
2018-04-19T20:35:19.065Z,72.80
2018-04-19T20:37:46.151Z,72.70
2018-04-19T20:40:12.553Z,73.30
2018-04-19T20:42:39.087Z,74.10
2018-04-19T20:45:06.303Z,74.70
2018-04-19T20:47:32.822Z,74.70
2018-04-19T20:49:59.289Z,75.30
2018-04-19T20:52:25.703Z,75.70
2018-04-19T20:54:52.189Z,75.90
2018-04-19T20:57:19.343Z,76.60
2018-04-19T20:59:46.534Z,77.10
2018-04-19T21:02:13.090Z,77.00
2018-04-19T21:04:40.278Z,77.80
2018-04-19T21:07:06.776Z,77.80
2018-04-19T21:09:33.232Z,78.10
2018-04-19T21:11:59.690Z,78.50
2018-04-19T21:14:26.189Z,78.80
2018-04-19T21:16:53.388Z,79.40
2018-04-19T21:19:19.858Z,79.40
2018-04-19T21:21:46.294Z,79.80
2018-04-19T21:24:12.710Z,80.10
2018-04-19T21:26:39.705Z,80.30
2018-04-19T21:29:06.362Z,80.90
2018-04-19T21:31:32.919Z,80.90
2018-04-19T21:33:59.442Z,81.00
2018-04-19T21:36:26.855Z,81.40
2018-04-19T21:38:54.133Z,85.70
2018-04-19T21:41:20.619Z,85.70
2018-04-19T21:43:47.252Z,84.80
2018-04-19T21:46:13.805Z,84.50
2018-04-19T21:48:41.081Z,84.20
2018-04-19T21:51:07.741Z,84.20
2018-04-19T21:53:34.313Z,84.00
2018-04-19T21:56:00.841Z,84.10
2018-04-19T21:58:28.950Z,84.20
2018-04-19T22:00:56.326Z,84.30
2018-04-19T22:03:23.705Z,84.30
2018-04-19T22:05:50.946Z,84.50
2018-04-19T22:08:17.460Z,84.50
2018-04-19T22:10:44.003Z,84.70
2018-04-19T22:13:10.556Z,84.70
2018-04-19T22:15:37.090Z,84.90
2018-04-19T22:18:03.678Z,85.90
2018-04-19T22:20:30.233Z,85.20
2018-04-19T22:22:56.737Z,85.30
2018-04-19T22:25:23.347Z,89.40
2018-04-19T22:27:49.903Z,88.50
2018-04-19T22:30:16.461Z,88.00
2018-04-19T22:32:43.740Z,87.70
2018-04-19T22:35:10.397Z,87.70
2018-04-19T22:37:37.059Z,87.80
2018-04-19T22:40:03.720Z,90.30
2018-04-19T22:42:30.277Z,90.00
2018-04-19T22:44:56.835Z,89.40
2018-04-19T22:47:24.073Z,88.90
2018-04-19T22:49:50.572Z,88.80
2018-04-19T22:52:17.228Z,88.70
2018-04-19T22:54:43.753Z,90.50
2018-04-19T22:57:10.260Z,90.10
2018-04-19T22:59:36.733Z,89.60
2018-04-19T23:02:04.075Z,89.10
2018-04-19T23:04:30.632Z,89.10
2018-04-19T23:06:57.923Z,88.90
2018-04-19T23:09:25.089Z,88.80
2018-04-19T23:11:51.742Z,88.90
2018-04-19T23:14:18.997Z,88.90
2018-04-19T23:16:46.297Z,89.50
2018-04-19T23:19:12.848Z,88.80
2018-04-19T23:21:39.408Z,89.00
2018-04-19T23:24:05.919Z,89.10
2018-04-19T23:26:32.526Z,89.00
2018-04-19T23:28:59.044Z,89.10
2018-04-19T23:31:25.530Z,89.20
2018-04-19T23:33:52.753Z,89.50
2018-04-19T23:36:19.271Z,89.50
2018-04-19T23:38:46.477Z,89.70
2018-04-19T23:41:13.061Z,89.60
2018-04-19T23:43:39.661Z,91.60
2018-04-19T23:46:07.479Z,91.10
2018-04-19T23:48:34.108Z,91.10
2018-04-19T23:51:00.592Z,90.90
2018-04-19T23:53:27.106Z,90.90
2018-04-19T23:55:54.397Z,90.90
2018-04-19T23:58:21.674Z,91.00
